Time;durP1;ratioP1;P1;durP2;ratioP2;P2;SDS_P1;SDS_P2;PMS_P1;PMS_P2;Temp;Humidity;BMP_temperature;BMP_pressure;BME280_temperature;BME280_humidity;BME280_pressure;Samples;Min_cycle;Max_cycle;Signal;HPM_P1;HPM_P2
2021/11/24 00:00:26;;;;;;;;;;;8.40;99.90;;;;;;5013154;28;19910;-76
2021/11/24 00:02:52;;;;;;;;;;;8.40;99.90;;;;;;5010549;28;20344;-76
2021/11/24 00:05:18;;;;;;;;;;;8.40;99.90;;;;;;5009052;28;20019;-76
2021/11/24 00:07:44;;;;;;;;;;;8.40;99.90;;;;;;5020530;28;19922;-76
2021/11/24 00:10:10;;;;;;;;;;;8.50;99.90;;;;;;5011926;28;19936;-75
2021/11/24 00:12:36;;;;;;;;;;;8.40;99.90;;;;;;5027429;28;19917;-76
2021/11/24 00:15:02;;;;;;;;;;;8.40;99.90;;;;;;5011220;28;19913;-74
2021/11/24 00:17:28;;;;;;;;;;;8.30;99.90;;;;;;5013098;28;19917;-76
2021/11/24 00:19:53;;;;;;;;;;;8.30;99.90;;;;;;5003793;28;20610;-75
2021/11/24 00:22:19;;;;;;;;;;;8.30;99.90;;;;;;5007503;28;19909;-75
2021/11/24 00:24:44;;;;;;;;;;;8.20;99.90;;;;;;5011901;28;20008;-75
2021/11/24 00:27:10;;;;;;;;;;;8.30;99.90;;;;;;5011004;28;20012;-75
2021/11/24 00:29:36;;;;;;;;;;;8.30;99.90;;;;;;5013169;28;19957;-74
2021/11/24 00:32:01;;;;;;;;;;;8.30;99.90;;;;;;5007330;28;20375;-76
2021/11/24 00:34:27;;;;;;;;;;;8.30;99.90;;;;;;5006541;28;19920;-76
2021/11/24 00:36:52;;;;;;;;;;;8.30;99.90;;;;;;5004416;28;19983;-77
2021/11/24 00:39:18;;;;;;;;;;;8.30;99.90;;;;;;5010123;28;19945;-74
2021/11/24 00:41:44;;;;;;;;;;;8.30;99.90;;;;;;5005811;28;19917;-74
2021/11/24 00:44:10;;;;;;;;;;;8.30;99.90;;;;;;5012683;28;20427;-74
2021/11/24 00:46:35;;;;;;;;;;;8.20;99.90;;;;;;5011994;28;19940;-76
2021/11/24 00:49:01;;;;;;;;;;;8.30;99.90;;;;;;5010893;28;19945;-75
2021/11/24 00:51:26;;;;;;;;;;;8.40;99.90;;;;;;5006705;28;19914;-75
2021/11/24 00:53:52;;;;;;;;;;;8.30;99.90;;;;;;5009971;28;20339;-75
2021/11/24 00:56:18;;;;;;;;;;;8.30;99.90;;;;;;5011745;28;19913;-75
2021/11/24 00:58:44;;;;;;;;;;;8.30;99.90;;;;;;4999541;28;19940;-74
2021/11/24 01:01:10;;;;;;;;;;;8.30;99.90;;;;;;5012103;28;19918;-75
2021/11/24 01:03:36;;;;;;;;;;;8.30;99.90;;;;;;5009813;28;20316;-74
2021/11/24 01:06:02;;;;;;;;;;;8.40;99.90;;;;;;5016041;28;19928;-75
2021/11/24 01:08:27;;;;;;;;;;;8.40;99.90;;;;;;5018474;28;19921;-75
2021/11/24 01:10:53;;;;;;;;;;;8.40;99.90;;;;;;5019338;28;19914;-75
2021/11/24 01:13:19;;;;;;;;;;;8.50;99.90;;;;;;5014928;28;20274;-77
2021/11/24 01:15:45;;;;;;;;;;;8.50;99.90;;;;;;5014032;28;19917;-75
2021/11/24 01:18:11;;;;;;;;;;;8.50;99.40;;;;;;5011661;28;19917;-75
2021/11/24 01:20:36;;;;;;;;;;;8.50;99.90;;;;;;5010283;28;19971;-76
2021/11/24 01:23:02;;;;;;;;;;;8.60;99.20;;;;;;5013667;28;20316;-76
2021/11/24 01:25:29;;;;;;;;;;;8.60;99.30;;;;;;5011678;28;19993;-75
2021/11/24 01:27:55;;;;;;;;;;;8.60;99.60;;;;;;5010933;28;19959;-75
2021/11/24 01:30:21;;;;;;;;;;;8.50;99.30;;;;;;5011384;28;19910;-74
2021/11/24 01:32:47;;;;;;;;;;;8.50;99.50;;;;;;5010196;28;20236;-75
2021/11/24 01:35:12;;;;;;;;;;;8.50;99.90;;;;;;5006855;28;19918;-76
2021/11/24 01:37:38;;;;;;;;;;;8.40;99.50;;;;;;5009146;28;19920;-75
2021/11/24 01:40:05;;;;;;;;;;;8.50;99.00;;;;;;5010036;28;20002;-77
2021/11/24 01:42:30;;;;;;;;;;;8.50;98.70;;;;;;5010386;28;19921;-75
2021/11/24 01:44:56;;;;;;;;;;;8.50;98.40;;;;;;5010882;28;19925;-75
2021/11/24 01:47:22;;;;;;;;;;;8.40;98.90;;;;;;5007240;28;20105;-76
2021/11/24 01:49:48;;;;;;;;;;;8.40;99.30;;;;;;5010619;28;19926;-75
2021/11/24 01:52:14;;;;;;;;;;;8.30;99.20;;;;;;5010511;28;19913;-74
2021/11/24 01:54:40;;;;;;;;;;;8.30;99.20;;;;;;5011256;28;19978;-75
2021/11/24 01:57:06;;;;;;;;;;;8.30;98.60;;;;;;5008979;28;20513;-74
2021/11/24 01:59:31;;;;;;;;;;;8.20;98.50;;;;;;5009398;28;19913;-75
2021/11/24 02:01:57;;;;;;;;;;;8.30;97.70;;;;;;4999736;28;19921;-77
2021/11/24 02:04:23;;;;;;;;;;;8.40;97.90;;;;;;5009660;28;19964;-75
2021/11/24 02:06:50;;;;;;;;;;;8.40;98.10;;;;;;5007728;28;19914;-75
2021/11/24 02:09:15;;;;;;;;;;;8.40;97.40;;;;;;5005331;28;19921;-76
2021/11/24 02:11:42;;;;;;;;;;;8.40;97.20;;;;;;5007474;28;20695;-75
2021/11/24 02:14:09;;;;;;;;;;;8.50;97.00;;;;;;5006010;28;19914;-76
2021/11/24 02:16:41;;;;;;;;;;;8.50;97.30;;;;;;5027424;28;20005;-75
2021/11/24 02:19:06;;;;;;;;;;;8.50;97.30;;;;;;5011568;28;19921;-77
2021/11/24 02:21:32;;;;;;;;;;;8.30;97.60;;;;;;5009911;28;20298;-76
2021/11/24 02:23:58;;;;;;;;;;;8.40;97.70;;;;;;5010815;28;20043;-75
2021/11/24 02:26:23;;;;;;;;;;;8.30;98.90;;;;;;5005764;28;20016;-75
2021/11/24 02:28:49;;;;;;;;;;;8.30;98.60;;;;;;5007402;28;19920;-74
2021/11/24 02:31:20;;;;;;;;;;;8.20;98.80;;;;;;5009270;28;19928;-74
2021/11/24 02:33:50;;;;;;;;;;;8.20;98.50;;;;;;5010231;28;19913;-76
2021/11/24 02:36:16;;;;;;;;;;;8.20;98.10;;;;;;5005165;28;20020;-75
2021/11/24 02:38:41;;;;;;;;;;;8.20;97.90;;;;;;5000530;28;20021;-74
2021/11/24 02:41:07;;;;;;;;;;;8.20;98.00;;;;;;5008249;28;19971;-76
2021/11/24 02:43:33;;;;;;;;;;;8.20;98.20;;;;;;5010223;28;19945;-77
2021/11/24 02:45:58;;;;;;;;;;;8.20;98.30;;;;;;5008853;28;19917;-75
2021/11/24 02:48:26;;;;;;;;;;;8.20;98.90;;;;;;5008196;28;20007;-74
2021/11/24 02:50:54;;;;;;;;;;;8.10;99.20;;;;;;5008247;28;19913;-76
2021/11/24 02:53:25;;;;;;;;;;;8.00;99.90;;;;;;5004958;28;19913;-76
2021/11/24 02:55:52;;;;;;;;;;;8.00;99.90;;;;;;5010120;28;19936;-77
2021/11/24 02:58:17;;;;;;;;;;;8.00;99.90;;;;;;5009729;28;19972;-76
2021/11/24 03:00:43;;;;;;;;;;;8.00;99.90;;;;;;5002632;28;19932;-74
2021/11/24 03:03:08;;;;;;;;;;;8.00;99.90;;;;;;5011232;28;20433;-76
2021/11/24 03:05:35;;;;;;;;;;;8.00;99.90;;;;;;5007667;28;19918;-75
2021/11/24 03:08:01;;;;;;;;;;;8.00;99.90;;;;;;5004678;28;19933;-74
2021/11/24 03:10:27;;;;;;;;;;;7.90;99.90;;;;;;5005549;28;20304;-75
2021/11/24 03:12:52;;;;;;;;;;;7.90;99.90;;;;;;5006985;28;20017;-76
2021/11/24 03:15:18;;;;;;;;;;;7.90;99.90;;;;;;4994703;28;20823;-75
2021/11/24 03:17:44;;;;;;;;;;;7.90;99.90;;;;;;5007366;28;19910;-75
2021/11/24 03:20:10;;;;;;;;;;;7.80;99.90;;;;;;5023479;28;19914;-75
2021/11/24 03:22:35;;;;;;;;;;;7.80;99.90;;;;;;5007852;28;20490;-75
2021/11/24 03:25:01;;;;;;;;;;;7.80;99.90;;;;;;5008748;28;19921;-74
2021/11/24 03:27:29;;;;;;;;;;;7.70;99.90;;;;;;5009574;28;19913;-74
2021/11/24 03:29:56;;;;;;;;;;;7.60;99.90;;;;;;5006021;28;19921;-74
2021/11/24 03:32:21;;;;;;;;;;;7.60;99.90;;;;;;5006212;28;19914;-76
2021/11/24 03:34:47;;;;;;;;;;;7.60;99.90;;;;;;5007478;28;20290;-76
2021/11/24 03:37:13;;;;;;;;;;;7.60;99.90;;;;;;5008579;28;20331;-76
2021/11/24 03:39:39;;;;;;;;;;;7.60;99.90;;;;;;5004020;28;20012;-77
2021/11/24 03:42:04;;;;;;;;;;;7.60;99.90;;;;;;5005473;28;20354;-77
2021/11/24 03:44:30;;;;;;;;;;;7.70;99.90;;;;;;5008504;28;19933;-76
2021/11/24 03:46:55;;;;;;;;;;;7.70;99.90;;;;;;5009132;28;19997;-76
2021/11/24 03:49:21;;;;;;;;;;;7.60;99.90;;;;;;5006486;28;19914;-77
2021/11/24 03:51:48;;;;;;;;;;;7.60;99.90;;;;;;5007169;28;19953;-77
2021/11/24 03:54:13;;;;;;;;;;;7.60;99.90;;;;;;5009263;28;20322;-76
2021/11/24 03:56:39;;;;;;;;;;;7.60;99.90;;;;;;5008514;28;19914;-77
2021/11/24 03:59:04;;;;;;;;;;;7.60;99.90;;;;;;5008215;28;19920;-77
2021/11/24 04:01:30;;;;;;;;;;;7.60;99.90;;;;;;5001697;28;20004;-75
2021/11/24 04:03:56;;;;;;;;;;;7.70;99.90;;;;;;5009336;28;19914;-76
2021/11/24 04:06:21;;;;;;;;;;;7.60;99.90;;;;;;5009083;28;19962;-78
2021/11/24 04:08:47;;;;;;;;;;;7.70;99.90;;;;;;5001907;28;20311;-75
2021/11/24 04:11:13;;;;;;;;;;;7.60;99.90;;;;;;5008811;28;19913;-74
2021/11/24 04:13:38;;;;;;;;;;;7.60;99.90;;;;;;5009513;28;19914;-75
2021/11/24 04:16:04;;;;;;;;;;;7.60;99.90;;;;;;5000005;28;20020;-76
2021/11/24 04:18:30;;;;;;;;;;;7.60;99.90;;;;;;5004235;28;19914;-77
2021/11/24 04:20:56;;;;;;;;;;;7.60;99.90;;;;;;5008091;28;20401;-76
2021/11/24 04:23:22;;;;;;;;;;;7.60;99.90;;;;;;5006994;28;19914;-76
2021/11/24 04:25:48;;;;;;;;;;;7.50;99.90;;;;;;5009631;28;20522;-76
2021/11/24 04:28:14;;;;;;;;;;;7.50;99.90;;;;;;5004975;28;19983;-76
2021/11/24 04:30:39;;;;;;;;;;;7.50;99.90;;;;;;5004648;28;19920;-76
2021/11/24 04:33:05;;;;;;;;;;;7.50;99.90;;;;;;5011012;28;20385;-76
2021/11/24 04:35:30;;;;;;;;;;;7.60;99.90;;;;;;5030410;28;19932;-76
2021/11/24 04:37:56;;;;;;;;;;;7.60;99.90;;;;;;5009790;28;20124;-76
2021/11/24 04:40:22;;;;;;;;;;;7.60;99.90;;;;;;5014170;28;20338;-76
2021/11/24 04:42:49;;;;;;;;;;;7.60;99.90;;;;;;5011390;28;19962;-76
2021/11/24 04:45:15;;;;;;;;;;;7.60;99.70;;;;;;5010809;28;20431;-77
2021/11/24 04:47:40;;;;;;;;;;;7.60;99.80;;;;;;5012658;28;19964;-76
2021/11/24 04:50:06;;;;;;;;;;;7.70;99.70;;;;;;5010806;28;19921;-75
2021/11/24 04:52:32;;;;;;;;;;;7.70;99.50;;;;;;5011470;28;19965;-76
2021/11/24 04:54:58;;;;;;;;;;;7.80;99.30;;;;;;5010148;28;20275;-77
2021/11/24 04:57:23;;;;;;;;;;;7.70;99.40;;;;;;5012200;28;19914;-75
2021/11/24 04:59:49;;;;;;;;;;;7.70;98.90;;;;;;5020993;28;20363;-76
2021/11/24 05:02:14;;;;;;;;;;;7.70;99.10;;;;;;5007571;28;19925;-76
2021/11/24 05:04:40;;;;;;;;;;;7.70;98.50;;;;;;5010852;28;19973;-76
2021/11/24 05:07:06;;;;;;;;;;;7.70;98.70;;;;;;5011890;28;19922;-75
2021/11/24 05:09:31;;;;;;;;;;;7.80;98.50;;;;;;5007693;28;19918;-76
2021/11/24 05:11:57;;;;;;;;;;;7.90;98.60;;;;;;5012278;28;19928;-75
2021/11/24 05:14:27;;;;;;;;;;;7.80;97.90;;;;;;5008650;28;19925;-76
2021/11/24 05:16:54;;;;;;;;;;;7.70;98.20;;;;;;5010196;28;19928;-75
2021/11/24 05:19:21;;;;;;;;;;;7.70;98.10;;;;;;5006859;28;20140;-78
2021/11/24 05:21:52;;;;;;;;;;;7.60;98.30;;;;;;5007824;28;19917;-76
2021/11/24 05:24:18;;;;;;;;;;;7.60;98.00;;;;;;5011109;28;19928;-76
2021/11/24 05:26:44;;;;;;;;;;;7.50;97.90;;;;;;5005079;28;20320;-76
2021/11/24 05:29:10;;;;;;;;;;;7.60;97.90;;;;;;5010983;28;19964;-76
2021/11/24 05:31:36;;;;;;;;;;;7.70;97.30;;;;;;5009160;28;20331;-77
2021/11/24 05:34:03;;;;;;;;;;;7.80;97.00;;;;;;5011566;28;19920;-76
2021/11/24 05:36:29;;;;;;;;;;;7.80;97.40;;;;;;5009190;28;19914;-76
2021/11/24 05:38:55;;;;;;;;;;;7.80;97.10;;;;;;5007254;28;19980;-75
2021/11/24 05:41:20;;;;;;;;;;;7.80;97.80;;;;;;4997966;28;19966;-76
2021/11/24 05:43:46;;;;;;;;;;;7.80;97.50;;;;;;5003222;28;19940;-75
2021/11/24 05:46:14;;;;;;;;;;;7.80;97.20;;;;;;5016847;28;19922;-76
2021/11/24 05:48:41;;;;;;;;;;;7.80;96.90;;;;;;5007052;28;19914;-75
2021/11/24 05:51:06;;;;;;;;;;;7.80;96.90;;;;;;5009677;28;20294;-75
2021/11/24 05:53:32;;;;;;;;;;;7.80;97.30;;;;;;5005828;28;19914;-75
2021/11/24 05:56:00;;;;;;;;;;;7.80;97.10;;;;;;5013169;28;20291;-75
2021/11/24 05:58:27;;;;;;;;;;;7.80;97.30;;;;;;5004402;28;20332;-76
2021/11/24 06:00:52;;;;;;;;;;;7.70;97.60;;;;;;5007841;28;19952;-76
2021/11/24 06:03:18;;;;;;;;;;;7.70;97.50;;;;;;5009437;28;20023;-75
2021/11/24 06:05:45;;;;;;;;;;;7.60;97.60;;;;;;5008982;28;19917;-75
2021/11/24 06:08:11;;;;;;;;;;;7.60;97.40;;;;;;5009571;28;20269;-75
2021/11/24 06:10:36;;;;;;;;;;;7.60;97.30;;;;;;5011339;28;19913;-76
2021/11/24 06:13:02;;;;;;;;;;;7.60;97.50;;;;;;5002570;28;19917;-76
2021/11/24 06:15:29;;;;;;;;;;;7.60;98.30;;;;;;5009150;28;19913;-74
2021/11/24 06:17:56;;;;;;;;;;;7.40;98.50;;;;;;5009085;28;19914;-75
2021/11/24 06:20:22;;;;;;;;;;;7.20;99.00;;;;;;5003665;28;20481;-75
2021/11/24 06:22:48;;;;;;;;;;;7.10;98.80;;;;;;5010411;28;20304;-74
2021/11/24 06:25:14;;;;;;;;;;;7.10;99.90;;;;;;5021055;28;19921;-74
2021/11/24 06:27:43;;;;;;;;;;;7.10;99.80;;;;;;4999834;28;19980;-73
2021/11/24 06:30:10;;;;;;;;;;;7.00;99.40;;;;;;5005832;28;19967;-74
2021/11/24 06:32:36;;;;;;;;;;;7.10;98.60;;;;;;5010392;28;19914;-76
2021/11/24 06:35:02;;;;;;;;;;;7.10;99.60;;;;;;4999072;28;19913;-74
2021/11/24 06:37:27;;;;;;;;;;;7.10;99.90;;;;;;5014316;28;19917;-74
2021/11/24 06:39:53;;;;;;;;;;;7.00;99.90;;;;;;5010533;28;19980;-75
2021/11/24 06:42:18;;;;;;;;;;;7.10;99.90;;;;;;5003305;28;19914;-75
2021/11/24 06:44:44;;;;;;;;;;;7.20;99.90;;;;;;5001497;28;19918;-74
2021/11/24 06:47:10;;;;;;;;;;;7.10;99.90;;;;;;5006696;28;19923;-73
2021/11/24 06:49:35;;;;;;;;;;;7.20;99.90;;;;;;5008277;28;19918;-74
2021/11/24 06:52:01;;;;;;;;;;;7.30;99.90;;;;;;5006579;28;19996;-75
2021/11/24 06:54:27;;;;;;;;;;;7.30;99.90;;;;;;5012048;28;20434;-74
2021/11/24 06:56:52;;;;;;;;;;;7.30;99.90;;;;;;5002659;28;19917;-75
2021/11/24 06:59:18;;;;;;;;;;;7.40;99.90;;;;;;5006056;28;20360;-75
2021/11/24 07:01:44;;;;;;;;;;;7.40;99.90;;;;;;5010649;28;20401;-75
2021/11/24 07:04:10;;;;;;;;;;;7.40;99.90;;;;;;5004794;28;19960;-76
2021/11/24 07:06:36;;;;;;;;;;;7.40;99.90;;;;;;5010761;28;20369;-76
2021/11/24 07:09:03;;;;;;;;;;;7.60;99.90;;;;;;4994513;28;19957;-75
2021/11/24 07:11:31;;;;;;;;;;;7.70;99.90;;;;;;5016338;28;19976;-74
2021/11/24 07:13:57;;;;;;;;;;;7.80;99.90;;;;;;5005672;28;19913;-77
2021/11/24 07:16:23;;;;;;;;;;;7.80;99.90;;;;;;5009632;28;20318;-76
2021/11/24 07:18:48;;;;;;;;;;;7.80;99.90;;;;;;5008926;28;20016;-76
2021/11/24 07:21:14;;;;;;;;;;;7.90;99.90;;;;;;5010122;28;19913;-66
2021/11/24 07:23:39;;;;;;;;;;;7.90;99.90;;;;;;5010407;28;19910;-67
2021/11/24 07:26:05;;;;;;;;;;;7.90;99.90;;;;;;5010025;28;20379;-67
2021/11/24 07:28:31;;;;;;;;;;;8.00;99.90;;;;;;5007167;28;19917;-67
2021/11/24 07:30:56;;;;;;;;;;;8.20;99.80;;;;;;4991908;28;20367;-67
2021/11/24 07:33:22;;;;;;;;;;;8.30;99.90;;;;;;5010582;28;19956;-69
2021/11/24 07:35:48;;;;;;;;;;;8.40;99.90;;;;;;5009736;28;19921;-67
2021/11/24 07:38:13;;;;;;;;;;;8.50;99.90;;;;;;5009774;28;19913;-66
2021/11/24 07:40:40;;;;;;;;;;;8.60;99.90;;;;;;5010706;28;19976;-67
2021/11/24 07:43:06;;;;;;;;;;;8.70;99.90;;;;;;4994947;28;19909;-68
2021/11/24 07:45:31;;;;;;;;;;;8.70;99.90;;;;;;4990865;28;19936;-68
2021/11/24 07:47:57;;;;;;;;;;;8.80;99.90;;;;;;4989657;28;20372;-67
2021/11/24 07:50:23;;;;;;;;;;;8.80;99.40;;;;;;4997013;28;20359;-67
2021/11/24 07:52:49;;;;;;;;;;;8.90;98.50;;;;;;4996534;28;19917;-67
2021/11/24 07:55:14;;;;;;;;;;;8.90;98.40;;;;;;4997005;28;20256;-67
2021/11/24 07:57:40;;;;;;;;;;;8.90;98.30;;;;;;5010636;28;19920;-68
2021/11/24 08:00:06;;;;;;;;;;;9.00;98.40;;;;;;5008418;28;19914;-67
2021/11/24 08:02:31;;;;;;;;;;;9.00;98.70;;;;;;5007473;28;20012;-67
2021/11/24 08:04:57;;;;;;;;;;;9.10;98.50;;;;;;5011416;28;19949;-67
2021/11/24 08:07:22;;;;;;;;;;;9.10;98.40;;;;;;5013882;28;19917;-67
2021/11/24 08:09:48;;;;;;;;;;;9.10;97.80;;;;;;5015130;28;19921;-67
2021/11/24 08:12:13;;;;;;;;;;;9.20;98.30;;;;;;5001035;28;19918;-67
2021/11/24 08:14:39;;;;;;;;;;;9.30;97.80;;;;;;4996545;28;19916;-67
2021/11/24 08:17:06;;;;;;;;;;;9.30;97.50;;;;;;5014507;28;19909;-67
2021/11/24 08:19:34;;;;;;;;;;;9.40;98.20;;;;;;5014408;28;19910;-66
2021/11/24 08:22:02;;;;;;;;;;;9.50;97.20;;;;;;5013697;28;20013;-68
2021/11/24 08:24:28;;;;;;;;;;;9.50;97.60;;;;;;5013907;28;20371;-67
2021/11/24 08:26:54;;;;;;;;;;;9.60;97.70;;;;;;5013162;28;19968;-67
2021/11/24 08:29:19;;;;;;;;;;;9.70;97.10;;;;;;5013847;28;20331;-67
2021/11/24 08:31:45;;;;;;;;;;;9.70;97.50;;;;;;5011320;28;20372;-67
2021/11/24 08:34:12;;;;;;;;;;;9.70;96.60;;;;;;5011255;28;20258;-67
2021/11/24 08:36:38;;;;;;;;;;;9.70;96.50;;;;;;4996272;28;19914;-67
2021/11/24 08:39:04;;;;;;;;;;;9.70;97.00;;;;;;4996742;28;19914;-67
2021/11/24 08:41:30;;;;;;;;;;;9.70;97.50;;;;;;4997958;28;19914;-67
2021/11/24 08:43:56;;;;;;;;;;;9.70;97.20;;;;;;5012412;28;19952;-67
2021/11/24 08:46:21;;;;;;;;;;;9.60;97.60;;;;;;5009308;28;20290;-67
2021/11/24 08:48:47;;;;;;;;;;;9.50;97.60;;;;;;4993545;28;19945;-66
2021/11/24 08:51:13;;;;;;;;;;;9.60;97.80;;;;;;5011063;28;19914;-68
2021/11/24 08:53:38;;;;;;;;;;;9.70;97.30;;;;;;5011828;28;20378;-67
2021/11/24 08:56:04;;;;;;;;;;;9.80;97.50;;;;;;5012253;28;19921;-67
2021/11/24 08:58:30;;;;;;;;;;;9.90;97.10;;;;;;5012672;28;19920;-65
2021/11/24 09:00:56;;;;;;;;;;;10.00;97.50;;;;;;5013252;28;20380;-66
2021/11/24 09:03:21;;;;;;;;;;;10.00;96.90;;;;;;5013406;28;19916;-66
2021/11/24 09:05:47;;;;;;;;;;;10.00;97.50;;;;;;5010884;28;19952;-66
2021/11/24 09:08:13;;;;;;;;;;;10.10;97.60;;;;;;5012259;28;20299;-66
2021/11/24 09:10:40;;;;;;;;;;;10.20;97.10;;;;;;5013225;28;19913;-67
2021/11/24 09:13:05;;;;;;;;;;;10.20;96.70;;;;;;5013440;28;19917;-67
2021/11/24 09:15:31;;;;;;;;;;;10.30;96.80;;;;;;5010464;28;20388;-67
2021/11/24 09:17:56;;;;;;;;;;;10.40;96.60;;;;;;5000943;28;19972;-67
2021/11/24 09:20:22;;;;;;;;;;;10.50;96.90;;;;;;5001726;28;20324;-66
2021/11/24 09:22:48;;;;;;;;;;;10.60;96.70;;;;;;5007386;28;19913;-66
2021/11/24 09:25:18;;;;;;;;;;;10.70;96.60;;;;;;5012300;28;19914;-66
2021/11/24 09:27:55;;;;;;;;;;;10.70;96.70;;;;;;4999507;28;20004;-67
2021/11/24 09:30:21;;;;;;;;;;;10.70;97.00;;;;;;5007546;28;19917;-67
2021/11/24 09:32:46;;;;;;;;;;;10.70;96.30;;;;;;5006704;28;20020;-68
2021/11/24 09:35:12;;;;;;;;;;;10.70;96.30;;;;;;5008870;28;19988;-67
2021/11/24 09:37:38;;;;;;;;;;;10.70;96.30;;;;;;5001202;28;19914;-68
2021/11/24 09:40:05;;;;;;;;;;;10.70;96.20;;;;;;5006814;28;20379;-66
2021/11/24 09:42:33;;;;;;;;;;;10.80;96.40;;;;;;5006595;28;19914;-67
2021/11/24 09:45:00;;;;;;;;;;;10.90;96.00;;;;;;5008965;28;19917;-66
2021/11/24 09:47:26;;;;;;;;;;;10.90;96.20;;;;;;5007165;28;19953;-67
2021/11/24 09:49:55;;;;;;;;;;;10.90;95.80;;;;;;5010012;28;20394;-66
2021/11/24 09:52:21;;;;;;;;;;;10.90;95.50;;;;;;5006540;28;19918;-66
2021/11/24 09:54:49;;;;;;;;;;;10.90;95.90;;;;;;5006558;28;20276;-66
2021/11/24 09:57:16;;;;;;;;;;;10.90;95.70;;;;;;5007418;28;19960;-67
2021/11/24 09:59:41;;;;;;;;;;;11.00;96.10;;;;;;5006872;28;20346;-67
2021/11/24 10:02:08;;;;;;;;;;;11.00;96.50;;;;;;5009913;28;19917;-66
2021/11/24 10:04:33;;;;;;;;;;;11.00;96.00;;;;;;5004221;28;19917;-67
2021/11/24 10:06:59;;;;;;;;;;;11.00;96.10;;;;;;5011070;28;20302;-67
2021/11/24 10:09:25;;;;;;;;;;;11.00;96.00;;;;;;5011524;28;19914;-67
2021/11/24 10:11:50;;;;;;;;;;;10.90;96.20;;;;;;5011666;28;19914;-67
2021/11/24 10:14:16;;;;;;;;;;;11.00;96.70;;;;;;5009324;28;19949;-66
2021/11/24 10:16:42;;;;;;;;;;;11.00;96.70;;;;;;5007843;28;20008;-67
2021/11/24 10:19:09;;;;;;;;;;;11.00;96.80;;;;;;5007261;28;20272;-67
2021/11/24 10:21:35;;;;;;;;;;;11.10;97.10;;;;;;5006781;28;19940;-66
2021/11/24 10:24:02;;;;;;;;;;;11.10;97.10;;;;;;5006625;28;20375;-66
2021/11/24 10:26:32;;;;;;;;;;;11.10;97.10;;;;;;5007821;28;19928;-66
2021/11/24 10:28:59;;;;;;;;;;;11.10;97.40;;;;;;5005857;28;19933;-66
2021/11/24 10:31:27;;;;;;;;;;;11.10;97.40;;;;;;5003267;28;19914;-65
2021/11/24 10:33:53;;;;;;;;;;;11.10;97.90;;;;;;5008362;28;19913;-66
2021/11/24 10:36:19;;;;;;;;;;;11.30;97.50;;;;;;5003464;28;19914;-68
2021/11/24 10:38:46;;;;;;;;;;;11.30;97.80;;;;;;5001963;28;20506;-66
2021/11/24 10:41:12;;;;;;;;;;;11.20;97.70;;;;;;5003899;28;19914;-65
2021/11/24 10:43:42;;;;;;;;;;;11.20;97.80;;;;;;5008506;28;19921;-66
2021/11/24 10:46:10;;;;;;;;;;;11.20;97.90;;;;;;5007418;28;19918;-68
2021/11/24 10:48:36;;;;;;;;;;;11.20;98.20;;;;;;5008272;28;19957;-66
2021/11/24 10:51:22;;;;;;;;;;;11.30;98.00;;;;;;5007466;28;19921;-65
2021/11/24 10:54:26;;;;;;;;;;;11.30;98.20;;;;;;5003424;28;19913;-66
2021/11/24 10:56:59;;;;;;;;;;;11.30;98.40;;;;;;4948644;28;20423;-66
2021/11/24 10:59:24;;;;;;;;;;;11.40;98.60;;;;;;4949603;29;20009;-67
2021/11/24 11:01:52;;;;;;;;;;;11.40;98.50;;;;;;4974433;28;20032;-67
2021/11/24 11:04:17;;;;;;;;;;;11.50;98.40;;;;;;5007758;28;19914;-67
2021/11/24 11:06:43;;;;;;;;;;;11.50;98.50;;;;;;5006752;28;19924;-67
2021/11/24 11:09:09;;;;;;;;;;;11.40;98.60;;;;;;5011369;28;20286;-67
2021/11/24 11:11:36;;;;;;;;;;;11.50;98.70;;;;;;5005381;28;20455;-66
2021/11/24 11:14:12;;;;;;;;;;;11.40;98.50;;;;;;5007652;28;19917;-66
2021/11/24 11:16:56;;;;;;;;;;;11.40;98.60;;;;;;5002749;28;19968;-67
2021/11/24 11:19:41;;;;;;;;;;;11.50;98.60;;;;;;5003764;28;19976;-67
2021/11/24 11:22:08;;;;;;;;;;;11.50;98.80;;;;;;5009900;28;20406;-67
2021/11/24 11:24:33;;;;;;;;;;;11.50;98.80;;;;;;5009699;28;20375;-66
2021/11/24 11:26:59;;;;;;;;;;;11.60;99.20;;;;;;5005805;28;19921;-66
2021/11/24 11:29:25;;;;;;;;;;;11.60;98.90;;;;;;5000490;28;20443;-66
2021/11/24 11:31:51;;;;;;;;;;;11.50;99.20;;;;;;5002084;28;20423;-66
2021/11/24 11:34:16;;;;;;;;;;;11.50;99.20;;;;;;5008175;28;20005;-68
2021/11/24 11:36:42;;;;;;;;;;;11.50;99.20;;;;;;5006147;28;20315;-68
2021/11/24 11:39:08;;;;;;;;;;;11.60;99.10;;;;;;5000350;28;20376;-67
2021/11/24 11:41:34;;;;;;;;;;;11.70;99.00;;;;;;5012368;28;19944;-67
2021/11/24 11:44:01;;;;;;;;;;;11.80;98.90;;;;;;5010428;28;19972;-70
2021/11/24 11:46:29;;;;;;;;;;;11.80;99.00;;;;;;5007768;28;19936;-68
2021/11/24 11:48:56;;;;;;;;;;;11.80;98.90;;;;;;5012436;28;19922;-67
2021/11/24 11:51:29;;;;;;;;;;;11.80;99.10;;;;;;5008041;28;20452;-67
2021/11/24 11:53:55;;;;;;;;;;;11.80;98.90;;;;;;5009197;28;20371;-67
2021/11/24 11:56:44;;;;;;;;;;;11.90;98.70;;;;;;5010644;28;19918;-67
2021/11/24 11:59:25;;;;;;;;;;;11.90;98.70;;;;;;5003011;28;19921;-67
2021/11/24 12:01:50;;;;;;;;;;;12.00;98.50;;;;;;5010998;28;20307;-68
2021/11/24 12:04:19;;;;;;;;;;;11.90;98.40;;;;;;5013445;28;19940;-67
2021/11/24 12:06:48;;;;;;;;;;;11.90;98.60;;;;;;5006479;28;20339;-67
2021/11/24 12:09:18;;;;;;;;;;;11.90;98.80;;;;;;5004767;28;19918;-68
2021/11/24 12:12:08;;;;;;;;;;;11.90;99.00;;;;;;5012768;28;20004;-67
2021/11/24 12:14:43;;;;;;;;;;;11.90;98.90;;;;;;5009492;28;19913;-67
2021/11/24 12:17:33;;;;;;;;;;;12.00;99.00;;;;;;5010824;28;19921;-68
2021/11/24 12:20:20;;;;;;;;;;;12.00;99.10;;;;;;5012685;28;19913;-67
2021/11/24 12:25:17;;;;;;;;;;;12.10;98.70;;;;;;5007594;28;19947;-66
2021/11/24 12:27:58;;;;;;;;;;;12.00;99.10;;;;;;5009754;28;20559;-68
2021/11/24 12:30:33;;;;;;;;;;;12.20;98.80;;;;;;5011276;28;19920;-68
2021/11/24 12:32:59;;;;;;;;;;;12.10;99.10;;;;;;5005765;28;20379;-68
2021/11/24 12:35:24;;;;;;;;;;;12.00;98.80;;;;;;5011245;28;19921;-68
2021/11/24 12:37:50;;;;;;;;;;;12.00;98.70;;;;;;5012615;28;19924;-68
2021/11/24 12:40:24;;;;;;;;;;;12.20;98.80;;;;;;5010938;28;20016;-67
2021/11/24 12:42:59;;;;;;;;;;;12.20;98.70;;;;;;5010564;28;19910;-68
2021/11/24 12:45:25;;;;;;;;;;;12.20;98.30;;;;;;5005869;28;19921;-68
2021/11/24 12:47:58;;;;;;;;;;;12.10;98.30;;;;;;5011828;28;19984;-67
2021/11/24 12:50:24;;;;;;;;;;;12.10;98.50;;;;;;5007675;28;20003;-68
2021/11/24 12:52:56;;;;;;;;;;;12.10;98.40;;;;;;5010222;28;19923;-68
2021/11/24 12:55:21;;;;;;;;;;;12.20;98.40;;;;;;5006181;28;19964;-68
2021/11/24 12:57:47;;;;;;;;;;;12.20;98.50;;;;;;5012703;28;19944;-68
2021/11/24 13:00:30;;;;;;;;;;;12.30;98.20;;;;;;5011009;28;19989;-68
2021/11/24 13:02:56;;;;;;;;;;;12.20;98.30;;;;;;5005184;28;20011;-67
2021/11/24 13:05:21;;;;;;;;;;;12.20;98.30;;;;;;5008826;28;19972;-68
2021/11/24 13:07:54;;;;;;;;;;;12.20;98.40;;;;;;5005627;28;19998;-67
2021/11/24 13:10:21;;;;;;;;;;;12.20;98.40;;;;;;5010667;28;19921;-67
2021/11/24 13:12:46;;;;;;;;;;;12.20;98.40;;;;;;5007491;28;20459;-68
2021/11/24 13:15:12;;;;;;;;;;;12.20;98.60;;;;;;5010123;28;19957;-67
2021/11/24 13:17:43;;;;;;;;;;;12.20;98.60;;;;;;5009071;28;20379;-68
2021/11/24 13:20:17;;;;;;;;;;;12.20;98.30;;;;;;5007767;28;19913;-69
2021/11/24 13:22:43;;;;;;;;;;;12.20;98.40;;;;;;5008492;28;20361;-68
2021/11/24 13:25:15;;;;;;;;;;;12.20;98.30;;;;;;5005201;28;20017;-68
2021/11/24 13:27:49;;;;;;;;;;;12.20;98.40;;;;;;5008862;28;20291;-67
2021/11/24 13:30:37;;;;;;;;;;;12.20;98.50;;;;;;4994133;28;19918;-68
2021/11/24 13:33:08;;;;;;;;;;;12.20;98.50;;;;;;5003704;28;19921;-67
2021/11/24 13:35:34;;;;;;;;;;;12.20;98.50;;;;;;5006951;28;19913;-66
2021/11/24 13:38:01;;;;;;;;;;;12.20;98.30;;;;;;5007061;28;19913;-67
2021/11/24 13:40:32;;;;;;;;;;;12.20;98.40;;;;;;5009926;28;19913;-68
2021/11/24 13:42:58;;;;;;;;;;;12.20;98.60;;;;;;5006824;28;20275;-68
2021/11/24 13:45:34;;;;;;;;;;;12.20;98.60;;;;;;5012909;28;20016;-72
2021/11/24 13:48:21;;;;;;;;;;;12.20;98.50;;;;;;4998562;28;20008;-68
2021/11/24 13:50:54;;;;;;;;;;;12.20;98.60;;;;;;5011101;28;19913;-68
2021/11/24 13:53:19;;;;;;;;;;;12.20;98.60;;;;;;5012380;28;19910;-68
2021/11/24 13:55:45;;;;;;;;;;;12.10;98.70;;;;;;5010223;28;19921;-69
2021/11/24 13:58:11;;;;;;;;;;;12.10;98.80;;;;;;5006253;28;19918;-68
2021/11/24 14:00:36;;;;;;;;;;;12.10;98.80;;;;;;5007448;28;19948;-68
2021/11/24 14:03:02;;;;;;;;;;;12.10;98.70;;;;;;5007320;28;19936;-68
2021/11/24 14:05:33;;;;;;;;;;;12.10;98.80;;;;;;5006348;28;19918;-69
2021/11/24 14:08:15;;;;;;;;;;;12.10;99.00;;;;;;5007718;28;21360;-68
2021/11/24 14:10:40;;;;;;;;;;;12.10;99.00;;;;;;5009649;28;19918;-67
2021/11/24 14:13:11;;;;;;;;;;;12.10;99.10;;;;;;5008773;28;19925;-68
2021/11/24 14:15:36;;;;;;;;;;;12.10;99.00;;;;;;5007821;28;20320;-67
2021/11/24 14:18:05;;;;;;;;;;;12.20;99.40;;;;;;5011161;28;20383;-68
2021/11/24 14:20:35;;;;;;;;;;;12.20;99.50;;;;;;5007917;28;19918;-67
2021/11/24 14:23:06;;;;;;;;;;;12.20;99.40;;;;;;5006389;28;19918;-67
2021/11/24 14:25:31;;;;;;;;;;;12.00;99.40;;;;;;5008718;28;19922;-67
2021/11/24 14:27:58;;;;;;;;;;;12.00;99.80;;;;;;5006822;28;20009;-68